createdAt,value
2018-12-18T00:00:24.888Z,0
2018-12-18T00:01:05.431Z,0
2018-12-18T00:01:46.074Z,0
2018-12-18T00:02:26.660Z,0
2018-12-18T00:03:07.197Z,0
2018-12-18T00:03:47.753Z,0
2018-12-18T00:04:28.320Z,0
2018-12-18T00:05:08.870Z,0
2018-12-18T00:05:49.451Z,0
2018-12-18T00:06:30.008Z,0
2018-12-18T00:07:10.565Z,0
2018-12-18T00:07:51.123Z,0
2018-12-18T00:08:31.672Z,0
2018-12-18T00:09:12.240Z,0
2018-12-18T00:09:52.799Z,0
2018-12-18T00:10:33.362Z,0
2018-12-18T00:11:13.920Z,0
2018-12-18T00:11:59.226Z,0
2018-12-18T00:12:35.061Z,0
2018-12-18T00:13:15.638Z,0
2018-12-18T00:13:56.186Z,0
2018-12-18T00:14:36.745Z,0
2018-12-18T00:15:17.297Z,0
2018-12-18T00:15:57.855Z,0
2018-12-18T00:16:38.409Z,0
2018-12-18T00:17:18.961Z,0
2018-12-18T00:17:59.593Z,0
2018-12-18T00:18:40.166Z,0
2018-12-18T00:19:20.718Z,0
2018-12-18T00:20:01.267Z,0
2018-12-18T00:20:41.840Z,0
2018-12-18T00:21:22.408Z,0
2018-12-18T00:22:02.977Z,0
2018-12-18T00:22:43.548Z,0
2018-12-18T00:23:24.134Z,0
2018-12-18T00:24:04.702Z,0
2018-12-18T00:24:45.254Z,0
2018-12-18T00:25:27.830Z,0
2018-12-18T00:26:08.378Z,0
2018-12-18T00:26:48.923Z,0
2018-12-18T00:27:29.475Z,0
2018-12-18T00:28:10.027Z,0
2018-12-18T00:28:50.611Z,0
2018-12-18T00:29:31.164Z,0
2018-12-18T00:30:11.711Z,0
2018-12-18T00:30:52.279Z,0
2018-12-18T00:31:32.870Z,0
2018-12-18T00:32:13.467Z,0
2018-12-18T00:32:53.993Z,0
2018-12-18T00:33:34.576Z,0
2018-12-18T00:34:15.140Z,0
2018-12-18T00:34:55.712Z,0
2018-12-18T00:35:36.249Z,0
2018-12-18T00:36:17.014Z,0
2018-12-18T00:36:57.479Z,0
2018-12-18T00:37:38.034Z,0
2018-12-18T00:38:18.595Z,0
2018-12-18T00:38:59.148Z,0
2018-12-18T00:39:39.731Z,0
2018-12-18T00:40:20.283Z,0
2018-12-18T00:41:00.847Z,0
2018-12-18T00:41:41.396Z,0
2018-12-18T00:42:21.952Z,0
2018-12-18T00:43:02.520Z,0
2018-12-18T00:43:43.073Z,0
2018-12-18T00:44:23.649Z,0
2018-12-18T00:45:04.197Z,0
2018-12-18T00:45:44.742Z,0
2018-12-18T00:46:25.335Z,0
2018-12-18T00:47:05.887Z,0
2018-12-18T00:47:46.419Z,0
2018-12-18T00:48:26.965Z,0
2018-12-18T00:49:07.530Z,0
2018-12-18T00:49:48.088Z,0
2018-12-18T00:50:28.635Z,0
2018-12-18T00:51:09.199Z,0
2018-12-18T00:51:49.761Z,0
2018-12-18T00:52:30.320Z,0
2018-12-18T00:53:10.874Z,0
2018-12-18T00:53:51.446Z,0
2018-12-18T00:54:32.020Z,0
2018-12-18T00:55:12.598Z,0
2018-12-18T00:55:53.142Z,0
2018-12-18T00:56:33.720Z,0
2018-12-18T00:57:14.273Z,0
2018-12-18T00:57:54.834Z,0
2018-12-18T00:58:35.384Z,0
2018-12-18T00:59:15.959Z,0
2018-12-18T00:59:56.536Z,0
2018-12-18T01:00:37.078Z,0
2018-12-18T01:01:17.633Z,0
2018-12-18T01:01:58.180Z,0
2018-12-18T01:02:38.730Z,0
2018-12-18T01:03:19.289Z,0
2018-12-18T01:03:59.840Z,0
2018-12-18T01:04:40.406Z,0
2018-12-18T01:05:20.970Z,0
2018-12-18T01:06:01.536Z,0
2018-12-18T01:06:42.114Z,0
2018-12-18T01:07:22.689Z,0
2018-12-18T01:08:03.247Z,0
2018-12-18T01:08:43.803Z,0
2018-12-18T01:09:24.370Z,0
2018-12-18T01:10:04.923Z,0
2018-12-18T01:10:45.478Z,0
2018-12-18T01:11:26.055Z,0
2018-12-18T01:12:06.621Z,0
2018-12-18T01:12:47.193Z,0
2018-12-18T01:13:27.751Z,0
2018-12-18T01:14:08.306Z,0
2018-12-18T01:14:48.855Z,0
2018-12-18T01:15:29.409Z,0
2018-12-18T01:16:09.962Z,0
2018-12-18T01:16:50.548Z,0
2018-12-18T01:17:31.103Z,0
2018-12-18T01:18:11.672Z,0
2018-12-18T01:18:52.232Z,0
2018-12-18T01:19:32.799Z,0
2018-12-18T01:20:13.343Z,0
2018-12-18T01:20:53.891Z,0
2018-12-18T01:21:34.521Z,0
2018-12-18T01:22:15.076Z,0
2018-12-18T01:22:55.629Z,0
2018-12-18T01:23:36.186Z,0
2018-12-18T01:24:16.738Z,0
2018-12-18T01:24:57.311Z,0
2018-12-18T01:25:37.865Z,0
2018-12-18T01:26:18.451Z,0
2018-12-18T01:26:59.000Z,0
2018-12-18T01:27:39.559Z,0
2018-12-18T01:28:20.128Z,0
2018-12-18T01:29:00.695Z,0
2018-12-18T01:29:41.256Z,0
2018-12-18T01:30:21.806Z,0
2018-12-18T01:31:02.361Z,0
2018-12-18T01:31:42.919Z,0
2018-12-18T01:32:23.465Z,0
2018-12-18T01:33:04.016Z,0
2018-12-18T01:33:44.596Z,0
2018-12-18T01:34:25.193Z,0
2018-12-18T01:35:05.856Z,0
2018-12-18T01:35:46.708Z,0
2018-12-18T01:36:27.288Z,0
2018-12-18T01:37:07.834Z,0
2018-12-18T01:37:48.402Z,0
2018-12-18T01:38:28.954Z,0
2018-12-18T01:39:09.532Z,0
2018-12-18T01:39:50.103Z,0
2018-12-18T01:40:30.664Z,0
2018-12-18T01:41:11.211Z,0
2018-12-18T01:41:51.782Z,0
2018-12-18T01:42:32.343Z,0
2018-12-18T01:43:12.898Z,0
2018-12-18T01:43:53.448Z,0
2018-12-18T01:44:33.995Z,0
2018-12-18T01:45:14.538Z,0
2018-12-18T01:45:55.113Z,0
2018-12-18T01:46:35.694Z,0
2018-12-18T01:47:16.252Z,0
2018-12-18T01:47:56.843Z,0
2018-12-18T01:48:37.400Z,0
2018-12-18T01:49:17.960Z,0
2018-12-18T01:49:58.523Z,0
2018-12-18T01:50:39.119Z,0
2018-12-18T01:51:19.678Z,0
2018-12-18T01:52:00.234Z,0
2018-12-18T01:52:40.808Z,0
2018-12-18T01:53:21.378Z,0
2018-12-18T01:54:01.991Z,0
2018-12-18T01:54:42.559Z,0
2018-12-18T01:55:23.125Z,0
2018-12-18T01:56:03.685Z,0
2018-12-18T01:56:44.236Z,0
2018-12-18T01:57:24.811Z,0
2018-12-18T01:58:05.379Z,0
2018-12-18T01:58:45.940Z,0
2018-12-18T01:59:26.497Z,0
2018-12-18T02:00:07.159Z,0
2018-12-18T02:00:47.768Z,0
2018-12-18T02:01:28.358Z,0
2018-12-18T02:02:08.943Z,0
2018-12-18T02:02:49.503Z,0
2018-12-18T02:03:30.055Z,0
2018-12-18T02:04:10.637Z,0
2018-12-18T02:04:51.216Z,0
2018-12-18T02:05:31.767Z,0
2018-12-18T02:06:12.319Z,0
2018-12-18T02:06:52.913Z,0
2018-12-18T02:07:33.477Z,0
2018-12-18T02:08:14.034Z,0
2018-12-18T02:08:54.612Z,0
2018-12-18T02:09:35.193Z,0
2018-12-18T02:10:15.747Z,0
2018-12-18T02:10:56.308Z,0
2018-12-18T02:11:36.871Z,0
2018-12-18T02:12:17.446Z,0
2018-12-18T02:12:58.013Z,0
2018-12-18T02:13:38.570Z,0
2018-12-18T02:14:19.143Z,0
2018-12-18T02:14:59.710Z,0
2018-12-18T02:15:40.289Z,0
2018-12-18T02:16:20.823Z,0
2018-12-18T02:17:01.378Z,0
2018-12-18T02:17:41.924Z,0
2018-12-18T02:18:22.525Z,0
2018-12-18T02:19:03.077Z,0
2018-12-18T02:19:43.662Z,0
2018-12-18T02:20:24.238Z,0
2018-12-18T02:21:04.809Z,0
2018-12-18T02:21:45.511Z,0
2018-12-18T02:22:26.056Z,0
2018-12-18T02:23:06.606Z,0
2018-12-18T02:23:47.273Z,0
2018-12-18T02:24:27.821Z,0
2018-12-18T02:25:08.462Z,0
2018-12-18T02:25:49.019Z,0
2018-12-18T02:26:29.609Z,0
2018-12-18T02:27:10.188Z,0
2018-12-18T02:27:50.745Z,0
2018-12-18T02:28:31.321Z,0
2018-12-18T02:29:11.874Z,0
2018-12-18T02:29:52.449Z,0
2018-12-18T02:30:33.037Z,0
2018-12-18T02:31:13.610Z,0
2018-12-18T02:31:54.204Z,0
2018-12-18T02:32:34.761Z,0
2018-12-18T02:33:15.346Z,0
2018-12-18T02:33:56.073Z,0
2018-12-18T02:34:36.633Z,0
2018-12-18T02:35:17.201Z,0
2018-12-18T02:35:57.777Z,0
2018-12-18T02:36:38.324Z,0
2018-12-18T02:37:18.899Z,0
2018-12-18T02:37:59.481Z,0
2018-12-18T02:38:40.063Z,0
2018-12-18T02:39:20.617Z,0
2018-12-18T02:40:01.264Z,0
2018-12-18T02:40:41.748Z,0
2018-12-18T02:41:22.311Z,0
2018-12-18T02:42:02.873Z,0
2018-12-18T02:42:43.421Z,0
2018-12-18T02:43:23.983Z,0
2018-12-18T02:44:04.545Z,0
2018-12-18T02:44:45.136Z,0
2018-12-18T02:45:25.705Z,0
2018-12-18T02:46:06.283Z,0
2018-12-18T02:46:46.828Z,0
2018-12-18T02:47:27.390Z,0
2018-12-18T02:48:07.955Z,0
2018-12-18T02:48:48.494Z,0
2018-12-18T02:49:29.063Z,0
2018-12-18T02:50:09.625Z,0
2018-12-18T02:50:50.192Z,0
2018-12-18T02:51:30.757Z,0
2018-12-18T02:52:11.316Z,0
2018-12-18T02:52:51.895Z,0
2018-12-18T02:53:32.447Z,0
2018-12-18T02:54:12.995Z,0
2018-12-18T02:54:53.555Z,0
2018-12-18T02:55:34.115Z,0
2018-12-18T02:56:14.665Z,0
2018-12-18T02:56:55.233Z,0
2018-12-18T02:57:35.786Z,0
2018-12-18T02:58:16.343Z,0
2018-12-18T02:58:56.897Z,0
2018-12-18T02:59:37.470Z,0
2018-12-18T03:00:18.024Z,0
2018-12-18T03:00:58.576Z,0
2018-12-18T03:01:39.134Z,0
2018-12-18T03:02:19.699Z,0
2018-12-18T03:03:00.266Z,0
2018-12-18T03:03:40.808Z,0
2018-12-18T03:04:21.990Z,0
2018-12-18T03:05:01.913Z,0
2018-12-18T03:05:42.470Z,0
2018-12-18T03:06:23.031Z,0
2018-12-18T03:07:03.597Z,0
2018-12-18T03:07:44.164Z,0
2018-12-18T03:08:24.707Z,0
2018-12-18T03:09:05.277Z,0
2018-12-18T03:09:45.833Z,0
2018-12-18T03:10:26.385Z,0
2018-12-18T03:11:06.959Z,0
2018-12-18T03:11:47.518Z,0
2018-12-18T03:12:28.078Z,0
2018-12-18T03:13:08.629Z,0
2018-12-18T03:13:49.189Z,0
2018-12-18T03:14:29.725Z,0
2018-12-18T03:15:10.332Z,0
2018-12-18T03:15:50.899Z,0
2018-12-18T03:16:31.463Z,0
2018-12-18T03:17:12.008Z,0
2018-12-18T03:17:52.578Z,0
2018-12-18T03:18:33.145Z,0
2018-12-18T03:19:13.701Z,0
2018-12-18T03:19:54.270Z,0
2018-12-18T03:20:34.838Z,0
2018-12-18T03:21:15.407Z,0
2018-12-18T03:21:55.968Z,0
2018-12-18T03:22:36.537Z,0
2018-12-18T03:23:17.118Z,0
2018-12-18T03:23:57.724Z,0
2018-12-18T03:24:38.266Z,0
2018-12-18T03:25:18.829Z,0
2018-12-18T03:25:59.389Z,0
2018-12-18T03:26:39.946Z,0
2018-12-18T03:27:20.538Z,0
2018-12-18T03:28:01.065Z,0
2018-12-18T03:28:41.604Z,0
2018-12-18T03:29:22.174Z,0
2018-12-18T03:30:02.738Z,0
2018-12-18T03:30:43.339Z,0
2018-12-18T03:31:23.925Z,0
2018-12-18T03:32:04.463Z,0
2018-12-18T03:32:45.014Z,0
2018-12-18T03:33:25.584Z,0
2018-12-18T03:34:06.143Z,0
2018-12-18T03:34:46.699Z,0
2018-12-18T03:35:27.534Z,0
2018-12-18T03:36:08.101Z,0
2018-12-18T03:36:48.669Z,0
2018-12-18T03:37:29.225Z,0
2018-12-18T03:38:09.793Z,0
2018-12-18T03:38:50.420Z,0
2018-12-18T03:39:30.939Z,0
2018-12-18T03:40:11.476Z,0
2018-12-18T03:40:52.035Z,0
2018-12-18T03:41:32.611Z,0
2018-12-18T03:42:13.167Z,0
2018-12-18T03:42:53.748Z,0
2018-12-18T03:43:34.313Z,0
2018-12-18T03:44:14.875Z,0
2018-12-18T03:44:55.431Z,0
2018-12-18T03:45:35.988Z,0
2018-12-18T03:46:16.535Z,0
2018-12-18T03:46:57.113Z,0
2018-12-18T03:47:37.685Z,0
2018-12-18T03:48:18.259Z,0
2018-12-18T03:48:58.814Z,0
2018-12-18T03:49:39.383Z,0
2018-12-18T03:50:19.939Z,0
2018-12-18T03:51:00.491Z,0
2018-12-18T03:51:41.043Z,0
2018-12-18T03:52:21.616Z,0
2018-12-18T03:53:02.152Z,0
2018-12-18T03:53:42.695Z,0
2018-12-18T03:54:23.273Z,0
2018-12-18T03:55:03.853Z,0
2018-12-18T03:55:44.415Z,0
2018-12-18T03:56:24.971Z,0
2018-12-18T03:57:05.527Z,0
2018-12-18T03:57:46.085Z,0
2018-12-18T03:58:26.664Z,0
2018-12-18T03:59:07.197Z,0
2018-12-18T03:59:47.759Z,0
2018-12-18T04:00:28.323Z,0
2018-12-18T04:01:08.896Z,0
2018-12-18T04:01:49.467Z,0
2018-12-18T04:02:30.059Z,0
2018-12-18T04:03:10.607Z,0
2018-12-18T04:03:51.158Z,0
2018-12-18T04:04:35.437Z,0
2018-12-18T04:05:12.285Z,0
2018-12-18T04:05:52.876Z,0
2018-12-18T04:06:33.469Z,0
2018-12-18T04:07:14.043Z,0
2018-12-18T04:07:54.570Z,0
2018-12-18T04:08:35.121Z,0
2018-12-18T04:09:15.664Z,0
2018-12-18T04:09:56.221Z,0
2018-12-18T04:10:36.810Z,0
2018-12-18T04:11:17.391Z,0
2018-12-18T04:11:57.949Z,0
2018-12-18T04:12:38.504Z,0
2018-12-18T04:13:19.081Z,0
2018-12-18T04:13:59.643Z,0
2018-12-18T04:14:40.254Z,0
2018-12-18T04:15:20.816Z,0
2018-12-18T04:16:01.403Z,0
2018-12-18T04:16:41.938Z,0
2018-12-18T04:17:22.553Z,0
2018-12-18T04:18:03.122Z,0
2018-12-18T04:18:43.687Z,0
2018-12-18T04:19:24.309Z,0
2018-12-18T04:20:04.915Z,0
2018-12-18T04:20:45.470Z,0
2018-12-18T04:21:26.064Z,0
2018-12-18T04:22:06.649Z,0
2018-12-18T04:22:47.199Z,0
2018-12-18T04:23:27.740Z,0
2018-12-18T04:24:08.304Z,0
2018-12-18T04:24:48.890Z,0
2018-12-18T04:25:29.442Z,0
2018-12-18T04:26:09.999Z,0
2018-12-18T04:26:50.585Z,0
2018-12-18T04:27:31.227Z,0
2018-12-18T04:28:11.782Z,0
2018-12-18T04:28:52.335Z,0
2018-12-18T04:29:32.899Z,0
2018-12-18T04:30:13.459Z,0
2018-12-18T04:30:54.034Z,0
2018-12-18T04:31:34.566Z,0
2018-12-18T04:32:15.175Z,0
2018-12-18T04:32:55.734Z,0
2018-12-18T04:33:36.341Z,0
2018-12-18T04:34:16.936Z,0
2018-12-18T04:34:57.524Z,0
2018-12-18T04:35:38.086Z,0
2018-12-18T04:36:18.649Z,0
2018-12-18T04:36:59.216Z,0
2018-12-18T04:37:39.794Z,0
2018-12-18T04:38:20.382Z,0
2018-12-18T04:39:00.949Z,0
2018-12-18T04:39:41.490Z,0
2018-12-18T04:40:22.069Z,0
2018-12-18T04:41:02.663Z,0
2018-12-18T04:41:43.216Z,0
2018-12-18T04:42:23.770Z,0
2018-12-18T04:43:04.313Z,0
2018-12-18T04:43:44.881Z,0
2018-12-18T04:44:25.452Z,0
2018-12-18T04:45:06.023Z,0
2018-12-18T04:45:46.586Z,0
2018-12-18T04:46:27.154Z,0
2018-12-18T04:47:07.721Z,0
2018-12-18T04:47:48.277Z,0
2018-12-18T04:48:28.825Z,0
2018-12-18T04:49:09.406Z,0
2018-12-18T04:49:49.950Z,0
2018-12-18T04:50:30.517Z,0
2018-12-18T04:51:11.070Z,0
2018-12-18T04:51:51.633Z,0
2018-12-18T04:52:32.192Z,0
2018-12-18T04:53:12.766Z,0
2018-12-18T04:53:53.332Z,0
2018-12-18T04:54:33.885Z,0
2018-12-18T04:55:14.456Z,0
2018-12-18T04:55:55.010Z,0
2018-12-18T04:56:35.571Z,0
2018-12-18T04:57:16.172Z,0
2018-12-18T04:57:56.791Z,0
2018-12-18T04:58:37.319Z,0
2018-12-18T04:59:17.871Z,0
2018-12-18T04:59:58.429Z,0
2018-12-18T05:00:38.995Z,0
2018-12-18T05:01:19.565Z,0
2018-12-18T05:02:00.133Z,0
2018-12-18T05:02:40.715Z,0
2018-12-18T05:03:21.270Z,0
2018-12-18T05:04:01.842Z,0
2018-12-18T05:04:42.372Z,0
2018-12-18T05:05:22.923Z,0
2018-12-18T05:06:03.474Z,0
2018-12-18T05:06:44.042Z,0
2018-12-18T05:07:24.606Z,0
2018-12-18T05:08:05.175Z,0
2018-12-18T05:08:45.729Z,0
2018-12-18T05:09:26.296Z,0
2018-12-18T05:10:06.881Z,0
2018-12-18T05:10:47.441Z,0
2018-12-18T05:11:27.992Z,0
2018-12-18T05:12:08.552Z,0
2018-12-18T05:12:49.133Z,4
2018-12-18T05:13:29.672Z,0
2018-12-18T05:14:10.225Z,0
2018-12-18T05:14:50.803Z,0
2018-12-18T05:15:31.373Z,0
2018-12-18T05:16:11.928Z,0
2018-12-18T05:16:52.471Z,0
2018-12-18T05:17:33.052Z,0
2018-12-18T05:18:13.615Z,0
2018-12-18T05:18:54.170Z,0
2018-12-18T05:19:34.733Z,0
2018-12-18T05:20:15.295Z,0
2018-12-18T05:20:55.861Z,0
2018-12-18T05:21:36.582Z,0
2018-12-18T05:22:17.431Z,0
2018-12-18T05:22:57.976Z,0
2018-12-18T05:23:38.521Z,0
2018-12-18T05:24:19.079Z,0
2018-12-18T05:24:59.663Z,0
2018-12-18T05:25:40.278Z,0
2018-12-18T05:26:20.848Z,0
2018-12-18T05:27:01.383Z,0
2018-12-18T05:27:41.958Z,0
2018-12-18T05:28:22.523Z,4
2018-12-18T05:29:03.076Z,0
2018-12-18T05:29:43.638Z,0
2018-12-18T05:30:24.198Z,0
2018-12-18T05:31:04.791Z,4
2018-12-18T05:31:45.361Z,4
2018-12-18T05:32:25.914Z,0
2018-12-18T05:33:06.445Z,0
2018-12-18T05:33:47.039Z,0
2018-12-18T05:34:27.633Z,0
2018-12-18T05:35:08.191Z,0
2018-12-18T05:35:48.750Z,0
2018-12-18T05:36:29.348Z,0
2018-12-18T05:37:09.908Z,0
2018-12-18T05:37:50.527Z,0
2018-12-18T05:38:31.435Z,0
2018-12-18T05:39:12.328Z,0
2018-12-18T05:39:53.995Z,0
2018-12-18T05:40:34.601Z,4
2018-12-18T05:41:15.397Z,0
2018-12-18T05:41:55.967Z,0
2018-12-18T05:42:36.622Z,4
2018-12-18T05:43:17.185Z,0
2018-12-18T05:43:57.741Z,4
2018-12-18T05:44:38.300Z,4
2018-12-18T05:45:18.870Z,4
2018-12-18T05:45:59.426Z,0
2018-12-18T05:46:40.031Z,0
2018-12-18T05:47:20.611Z,0
2018-12-18T05:48:01.262Z,0
2018-12-18T05:48:42.291Z,0
2018-12-18T05:49:22.957Z,4
2018-12-18T05:50:03.516Z,4
2018-12-18T05:50:45.684Z,4
2018-12-18T05:51:26.476Z,4
2018-12-18T05:52:07.037Z,4
2018-12-18T05:52:47.878Z,4
2018-12-18T05:53:28.462Z,4
2018-12-18T05:54:09.016Z,4
2018-12-18T05:54:49.621Z,4
2018-12-18T05:55:30.168Z,4
2018-12-18T05:56:10.745Z,4
2018-12-18T05:56:51.288Z,4
2018-12-18T05:57:31.851Z,4
2018-12-18T05:58:12.410Z,4
2018-12-18T05:58:53.276Z,4
2018-12-18T05:59:33.844Z,4
2018-12-18T06:00:14.588Z,4
2018-12-18T06:00:55.172Z,4
2018-12-18T06:01:35.723Z,4
2018-12-18T06:02:16.304Z,4
2018-12-18T06:02:56.849Z,4
2018-12-18T06:03:37.405Z,4
2018-12-18T06:04:17.958Z,4
2018-12-18T06:05:03.119Z,4
2018-12-18T06:05:39.159Z,4
2018-12-18T06:06:19.774Z,4
2018-12-18T06:07:00.333Z,4
2018-12-18T06:07:40.913Z,4
2018-12-18T06:08:21.490Z,4
2018-12-18T06:09:02.060Z,4
2018-12-18T06:09:42.624Z,4
2018-12-18T06:10:23.183Z,4
2018-12-18T06:11:03.749Z,4
2018-12-18T06:11:44.345Z,4
2018-12-18T06:12:24.974Z,4
2018-12-18T06:13:05.524Z,4
2018-12-18T06:13:46.091Z,4
2018-12-18T06:14:26.667Z,4
2018-12-18T06:15:07.218Z,4
2018-12-18T06:15:47.802Z,4
2018-12-18T06:16:28.375Z,4
2018-12-18T06:17:08.936Z,0
2018-12-18T06:17:49.939Z,4
2018-12-18T06:18:30.069Z,4
2018-12-18T06:19:10.700Z,4
2018-12-18T06:19:51.297Z,4
2018-12-18T06:20:31.938Z,4
2018-12-18T06:21:12.521Z,4
2018-12-18T06:21:53.138Z,0
2018-12-18T06:22:33.718Z,4
2018-12-18T06:23:14.303Z,4
2018-12-18T06:23:54.903Z,4
2018-12-18T06:24:35.476Z,4
2018-12-18T06:25:16.533Z,4
2018-12-18T06:25:56.676Z,4
2018-12-18T06:26:37.170Z,0
2018-12-18T06:27:17.725Z,4
2018-12-18T06:27:58.277Z,4
2018-12-18T06:28:38.932Z,4
2018-12-18T06:29:19.489Z,4
2018-12-18T06:30:00.059Z,4
2018-12-18T06:30:40.632Z,4
2018-12-18T06:31:21.230Z,4
2018-12-18T06:32:01.804Z,4
2018-12-18T06:32:42.429Z,4
2018-12-18T06:33:23.013Z,4
2018-12-18T06:34:03.685Z,4
2018-12-18T06:34:44.241Z,4
2018-12-18T06:35:25.073Z,4
2018-12-18T06:36:05.664Z,4
2018-12-18T06:36:46.277Z,4
2018-12-18T06:37:27.848Z,4
2018-12-18T06:38:07.384Z,4
2018-12-18T06:38:47.939Z,4
2018-12-18T06:39:28.769Z,4
2018-12-18T06:40:09.413Z,4
2018-12-18T06:40:49.977Z,4
2018-12-18T06:41:31.455Z,4
2018-12-18T06:42:12.003Z,0
2018-12-18T06:42:53.308Z,0
2018-12-18T06:43:33.179Z,0
2018-12-18T06:44:13.772Z,0
2018-12-18T06:44:54.364Z,0
2018-12-18T06:45:34.926Z,0
2018-12-18T06:46:15.527Z,4
2018-12-18T06:46:56.106Z,4
2018-12-18T06:47:36.713Z,4
2018-12-18T06:48:17.260Z,0
2018-12-18T06:48:57.859Z,0
2018-12-18T06:49:38.439Z,0
2018-12-18T06:50:19.021Z,4
2018-12-18T06:50:59.591Z,4
2018-12-18T06:51:40.142Z,4
2018-12-18T06:52:20.736Z,4
2018-12-18T06:53:01.303Z,0
2018-12-18T06:53:41.872Z,4
2018-12-18T06:54:22.432Z,4
2018-12-18T06:55:02.983Z,4
2018-12-18T06:55:43.591Z,4
2018-12-18T06:56:24.239Z,8
2018-12-18T06:57:04.882Z,4
2018-12-18T06:57:45.500Z,4
2018-12-18T06:58:26.070Z,4
2018-12-18T06:59:06.651Z,8
2018-12-18T06:59:47.238Z,8
2018-12-18T07:00:27.804Z,8
2018-12-18T07:01:08.367Z,8
2018-12-18T07:01:48.984Z,12
2018-12-18T07:02:29.542Z,8
2018-12-18T07:03:10.105Z,8
2018-12-18T07:03:50.657Z,12
2018-12-18T07:04:31.271Z,8
2018-12-18T07:05:16.611Z,12
2018-12-18T07:05:52.401Z,12
2018-12-18T07:06:32.968Z,16
2018-12-18T07:07:13.583Z,16
2018-12-18T07:07:57.500Z,20
2018-12-18T07:08:35.201Z,20
2018-12-18T07:09:15.791Z,24
2018-12-18T07:09:56.367Z,24
2018-12-18T07:10:36.947Z,28
2018-12-18T07:11:17.510Z,32
2018-12-18T07:11:58.107Z,36
2018-12-18T07:12:38.647Z,36
2018-12-18T07:13:19.223Z,40
2018-12-18T07:13:59.818Z,44
2018-12-18T07:14:40.393Z,44
2018-12-18T07:15:20.952Z,48
2018-12-18T07:16:01.561Z,56
2018-12-18T07:16:42.159Z,56
2018-12-18T07:17:22.730Z,60
2018-12-18T07:18:03.365Z,60
2018-12-18T07:18:43.939Z,68
2018-12-18T07:19:24.517Z,68
2018-12-18T07:20:05.089Z,72
2018-12-18T07:20:45.624Z,76
2018-12-18T07:21:26.209Z,76
2018-12-18T07:22:06.767Z,80
2018-12-18T07:22:47.345Z,80
2018-12-18T07:23:27.914Z,80
2018-12-18T07:24:13.972Z,84
2018-12-18T07:24:49.071Z,88
2018-12-18T07:25:29.674Z,92
2018-12-18T07:26:10.244Z,92
2018-12-18T07:26:50.833Z,96
2018-12-18T07:27:31.417Z,100
2018-12-18T07:28:12.022Z,100
2018-12-18T07:28:52.703Z,104
2018-12-18T07:29:33.373Z,112
2018-12-18T07:30:13.946Z,112
2018-12-18T07:30:54.555Z,112
2018-12-18T07:31:35.119Z,116
2018-12-18T07:32:15.676Z,120
2018-12-18T07:32:56.238Z,120
2018-12-18T07:33:36.797Z,120
2018-12-18T07:34:17.359Z,116
2018-12-18T07:34:57.932Z,112
2018-12-18T07:35:38.813Z,112
2018-12-18T07:36:19.402Z,116
2018-12-18T07:37:00.000Z,120
2018-12-18T07:37:40.584Z,128
2018-12-18T07:38:21.216Z,132
2018-12-18T07:39:01.766Z,136
2018-12-18T07:39:42.353Z,132
2018-12-18T07:40:22.899Z,136
2018-12-18T07:41:03.453Z,136
2018-12-18T07:41:44.009Z,144
2018-12-18T07:42:24.569Z,136
2018-12-18T07:43:05.140Z,128
2018-12-18T07:43:45.705Z,124
2018-12-18T07:44:26.268Z,120
2018-12-18T07:45:06.824Z,116
2018-12-18T07:45:47.431Z,112
2018-12-18T07:46:28.037Z,108
2018-12-18T07:47:08.619Z,100
2018-12-18T07:47:49.247Z,100
2018-12-18T07:48:29.899Z,100
2018-12-18T07:49:10.479Z,108
2018-12-18T07:49:51.187Z,104
2018-12-18T07:50:31.769Z,112
2018-12-18T07:51:12.397Z,124
2018-12-18T07:51:53.043Z,132
2018-12-18T07:52:34.022Z,140
2018-12-18T07:53:14.635Z,152
2018-12-18T07:53:55.225Z,164
2018-12-18T07:54:35.829Z,172
2018-12-18T07:55:16.410Z,176
2018-12-18T07:56:00.210Z,180
2018-12-18T07:56:37.554Z,180
2018-12-18T07:57:18.130Z,184
2018-12-18T07:57:58.689Z,196
2018-12-18T07:58:39.310Z,212
2018-12-18T07:59:19.866Z,224
2018-12-18T08:00:00.457Z,236
2018-12-18T08:00:40.993Z,244
2018-12-18T08:01:21.865Z,252
2018-12-18T08:02:02.467Z,256
2018-12-18T08:02:43.047Z,264
2018-12-18T08:03:23.609Z,272
2018-12-18T08:04:04.192Z,276
2018-12-18T08:04:44.745Z,284
2018-12-18T08:05:29.752Z,296
2018-12-18T08:06:05.874Z,300
2018-12-18T08:06:46.464Z,304
2018-12-18T08:07:27.034Z,308
2018-12-18T08:08:07.595Z,308
2018-12-18T08:08:48.162Z,304
2018-12-18T08:09:28.716Z,304
2018-12-18T08:10:09.315Z,300
2018-12-18T08:10:49.858Z,300
2018-12-18T08:11:30.419Z,300
2018-12-18T08:12:10.963Z,304
2018-12-18T08:12:51.526Z,308
2018-12-18T08:13:32.076Z,316
2018-12-18T08:14:12.699Z,320
2018-12-18T08:14:53.283Z,328
2018-12-18T08:15:34.023Z,336
2018-12-18T08:16:14.589Z,336
2018-12-18T08:16:55.149Z,344
2018-12-18T08:17:35.724Z,348
2018-12-18T08:18:16.302Z,356
2018-12-18T08:18:56.841Z,356
2018-12-18T08:19:37.502Z,364
2018-12-18T08:20:18.012Z,376
2018-12-18T08:20:58.547Z,384
2018-12-18T08:21:39.165Z,392
2018-12-18T08:22:19.708Z,396
2018-12-18T08:23:00.300Z,400
2018-12-18T08:23:40.863Z,404
2018-12-18T08:24:21.427Z,404
2018-12-18T08:25:02.034Z,408
2018-12-18T08:25:42.631Z,412
2018-12-18T08:26:23.191Z,416
2018-12-18T08:27:03.748Z,424
2018-12-18T08:27:44.306Z,436
2018-12-18T08:28:24.890Z,440
2018-12-18T08:29:05.563Z,440
2018-12-18T08:29:46.164Z,444
2018-12-18T08:30:26.700Z,428
2018-12-18T08:31:07.315Z,424
2018-12-18T08:31:47.877Z,420
2018-12-18T08:32:28.469Z,420
2018-12-18T08:33:09.078Z,416
2018-12-18T08:33:49.589Z,416
2018-12-18T08:34:30.187Z,412
2018-12-18T08:35:10.775Z,416
2018-12-18T08:35:51.509Z,420
2018-12-18T08:36:32.053Z,420
2018-12-18T08:37:12.657Z,412
2018-12-18T08:37:53.290Z,404
2018-12-18T08:38:33.893Z,404
2018-12-18T08:39:14.462Z,408
2018-12-18T08:39:55.143Z,412
2018-12-18T08:40:35.690Z,412
2018-12-18T08:41:16.276Z,408
2018-12-18T08:41:56.871Z,412
2018-12-18T08:42:38.067Z,408
2018-12-18T08:43:18.652Z,412
2018-12-18T08:43:59.281Z,408
2018-12-18T08:44:39.868Z,408
2018-12-18T08:45:20.509Z,416
2018-12-18T08:46:01.063Z,420
2018-12-18T08:46:41.778Z,424
2018-12-18T08:47:22.388Z,432
2018-12-18T08:48:02.946Z,436
2018-12-18T08:48:43.526Z,444
2018-12-18T08:49:24.101Z,448
2018-12-18T08:50:04.667Z,448
2018-12-18T08:50:45.217Z,452
2018-12-18T08:51:25.777Z,444
2018-12-18T08:52:06.355Z,436
2018-12-18T08:52:46.920Z,428
2018-12-18T08:53:27.475Z,432
2018-12-18T08:54:08.031Z,448
2018-12-18T08:54:48.583Z,472
2018-12-18T08:55:29.145Z,496
2018-12-18T08:56:09.689Z,524
2018-12-18T08:56:50.258Z,544
2018-12-18T08:57:30.826Z,568
2018-12-18T08:58:11.405Z,592
2018-12-18T08:58:52.034Z,616
2018-12-18T08:59:32.591Z,636
2018-12-18T09:00:13.197Z,644
2018-12-18T09:00:53.759Z,644
2018-12-18T09:01:34.320Z,644
2018-12-18T09:02:14.896Z,644
2018-12-18T09:02:55.453Z,652
2018-12-18T09:03:36.020Z,660
2018-12-18T09:04:16.579Z,676
2018-12-18T09:04:57.126Z,692
2018-12-18T09:05:43.052Z,720
2018-12-18T09:06:18.247Z,760
2018-12-18T09:06:58.815Z,804
2018-12-18T09:07:39.376Z,836
2018-12-18T09:08:19.977Z,856
2018-12-18T09:09:00.547Z,868
2018-12-18T09:09:41.113Z,888
2018-12-18T09:10:21.696Z,916
2018-12-18T09:11:02.246Z,948
2018-12-18T09:11:42.852Z,972
2018-12-18T09:12:23.403Z,1000
2018-12-18T09:13:03.976Z,1040
2018-12-18T09:13:44.549Z,1084
2018-12-18T09:14:25.102Z,1124
2018-12-18T09:15:05.779Z,1152
2018-12-18T09:15:46.259Z,1164
2018-12-18T09:16:26.828Z,1160
2018-12-18T09:17:07.399Z,1160
2018-12-18T09:17:47.957Z,1160
2018-12-18T09:18:28.543Z,1172
2018-12-18T09:19:09.092Z,1184
2018-12-18T09:19:49.914Z,1196
2018-12-18T09:20:30.492Z,1208
2018-12-18T09:21:11.057Z,1212
2018-12-18T09:21:51.608Z,1212
2018-12-18T09:22:32.166Z,1212
2018-12-18T09:23:12.740Z,1212
2018-12-18T09:23:53.284Z,1216
2018-12-18T09:24:33.846Z,1220
2018-12-18T09:25:14.401Z,1232
2018-12-18T09:25:54.970Z,1236
2018-12-18T09:26:35.522Z,1244
2018-12-18T09:27:16.083Z,1268
2018-12-18T09:27:56.641Z,1296
2018-12-18T09:28:37.203Z,1308
2018-12-18T09:29:17.757Z,1316
2018-12-18T09:29:58.322Z,1308
2018-12-18T09:30:42.354Z,1292
2018-12-18T09:31:19.435Z,1292
2018-12-18T09:32:00.007Z,1304
2018-12-18T09:32:40.591Z,1332
2018-12-18T09:33:21.181Z,1360
2018-12-18T09:34:01.756Z,1440
2018-12-18T09:34:42.314Z,1472
2018-12-18T09:35:22.874Z,1480
2018-12-18T09:36:03.425Z,1488
2018-12-18T09:36:43.987Z,1528
2018-12-18T09:37:24.540Z,1516
2018-12-18T09:38:05.100Z,1460
2018-12-18T09:38:45.653Z,1408
2018-12-18T09:39:26.250Z,1396
2018-12-18T09:40:06.816Z,1428
2018-12-18T09:40:47.394Z,1432
2018-12-18T09:41:28.034Z,1424
2018-12-18T09:42:08.609Z,1356
2018-12-18T09:42:49.201Z,1356
2018-12-18T09:43:29.793Z,1452
2018-12-18T09:44:10.370Z,1540
2018-12-18T09:44:50.932Z,1600
2018-12-18T09:45:31.524Z,1628
2018-12-18T09:46:12.077Z,1656
2018-12-18T09:46:52.638Z,1716
2018-12-18T09:47:33.305Z,1756